Time;durP1;ratioP1;P1;durP2;ratioP2;P2;SDS_P1;SDS_P2;PMS_P1;PMS_P2;Temp;Humidity;BMP_temperature;BMP_pressure;BME280_temperature;BME280_humidity;BME280_pressure;Samples;Min_cycle;Max_cycle;Signal;HPM_P1;HPM_P2
2023/09/26 00:00:10;;;;;;;;;;;20.80;1.00;;;;;;4956461;29;19978;-55
2023/09/26 00:02:37;;;;;;;;;;;20.80;1.00;;;;;;4956905;29;19965;-58
2023/09/26 00:05:05;;;;;;;;;;;20.80;1.00;;;;;;4956905;29;19927;-55
2023/09/26 00:07:32;;;;;;;;;;;20.80;1.00;;;;;;4956736;29;19927;-57
2023/09/26 00:10:00;;;;;;;;;;;20.80;1.00;;;;;;4956200;29;19965;-58
2023/09/26 00:12:28;;;;;;;;;;;20.70;1.00;;;;;;4956709;29;19927;-58
2023/09/26 00:14:55;;;;;;;;;;;20.70;1.00;;;;;;4956811;29;20295;-59
2023/09/26 00:17:22;;;;;;;;;;;20.70;1.00;;;;;;4957100;29;20398;-58
2023/09/26 00:19:49;;;;;;;;;;;20.70;1.00;;;;;;4955965;29;19930;-53
2023/09/26 00:22:16;;;;;;;;;;;20.70;1.00;;;;;;4956570;29;19931;-57
2023/09/26 00:24:43;;;;;;;;;;;20.70;1.00;;;;;;4956800;29;19927;-56
2023/09/26 00:27:10;;;;;;;;;;;20.70;1.00;;;;;;4956387;29;20406;-54
2023/09/26 00:29:37;;;;;;;;;;;20.70;1.00;;;;;;4956147;29;19926;-57
2023/09/26 00:32:04;;;;;;;;;;;20.70;1.00;;;;;;4955148;29;20013;-55
2023/09/26 00:34:30;;;;;;;;;;;20.70;1.00;;;;;;4955111;29;20347;-54
2023/09/26 00:36:57;;;;;;;;;;;20.70;1.00;;;;;;4956487;29;19962;-59
2023/09/26 00:39:24;;;;;;;;;;;20.70;1.00;;;;;;4954744;29;19926;-52
2023/09/26 00:41:51;;;;;;;;;;;20.70;1.00;;;;;;4938873;29;20380;-56
2023/09/26 00:44:17;;;;;;;;;;;20.70;1.00;;;;;;4954842;29;19926;-53
2023/09/26 00:46:45;;;;;;;;;;;20.70;1.00;;;;;;4938959;29;20391;-54
2023/09/26 00:49:13;;;;;;;;;;;20.70;1.00;;;;;;4955767;29;20300;-53
2023/09/26 00:51:39;;;;;;;;;;;20.70;1.00;;;;;;4926276;29;19978;-54
2023/09/26 00:54:09;;;;;;;;;;;20.70;1.00;;;;;;4936835;29;19931;-57
2023/09/26 00:56:38;;;;;;;;;;;20.70;1.00;;;;;;4919682;29;19934;-53
2023/09/26 00:59:05;;;;;;;;;;;20.70;1.00;;;;;;4936349;29;19933;-53
2023/09/26 01:01:32;;;;;;;;;;;20.60;1.00;;;;;;4919612;29;19933;-52
2023/09/26 01:03:59;;;;;;;;;;;20.60;1.00;;;;;;4936581;29;19927;-52
2023/09/26 01:06:26;;;;;;;;;;;20.70;1.00;;;;;;4919632;29;20348;-53
2023/09/26 01:08:53;;;;;;;;;;;20.60;1.00;;;;;;4918140;29;19958;-55
2023/09/26 01:11:20;;;;;;;;;;;20.60;1.00;;;;;;4919368;29;19927;-58
2023/09/26 01:13:47;;;;;;;;;;;20.60;1.00;;;;;;4936334;29;19927;-54
2023/09/26 01:16:15;;;;;;;;;;;20.60;1.00;;;;;;4936517;29;20296;-54
2023/09/26 01:18:42;;;;;;;;;;;20.60;1.00;;;;;;4918838;29;19970;-53
2023/09/26 01:21:09;;;;;;;;;;;20.60;1.00;;;;;;4919239;29;19981;-55
2023/09/26 01:23:36;;;;;;;;;;;20.60;1.00;;;;;;4919255;29;19927;-55
2023/09/26 01:26:03;;;;;;;;;;;20.60;1.00;;;;;;4919157;29;19926;-55
2023/09/26 01:28:30;;;;;;;;;;;20.60;1.00;;;;;;4918792;29;19926;-52
2023/09/26 01:30:56;;;;;;;;;;;20.60;1.00;;;;;;4935996;29;19938;-52
2023/09/26 01:33:23;;;;;;;;;;;20.60;1.00;;;;;;4918960;29;19927;-55
2023/09/26 01:35:51;;;;;;;;;;;20.60;1.00;;;;;;4936237;29;20034;-54
2023/09/26 01:38:19;;;;;;;;;;;20.60;1.00;;;;;;4936015;29;19926;-52
2023/09/26 01:40:46;;;;;;;;;;;20.60;1.00;;;;;;4918534;29;19927;-53
2023/09/26 01:43:12;;;;;;;;;;;20.60;1.00;;;;;;4944030;29;20062;-58
2023/09/26 01:45:42;;;;;;;;;;;20.60;1.00;;;;;;4947135;29;19969;-51
2023/09/26 01:48:09;;;;;;;;;;;20.60;1.00;;;;;;4935760;29;19926;-54
2023/09/26 01:50:36;;;;;;;;;;;20.60;1.00;;;;;;4918529;29;20045;-52
2023/09/26 01:53:04;;;;;;;;;;;20.60;1.00;;;;;;4921324;29;19934;-52
2023/09/26 01:55:31;;;;;;;;;;;20.60;1.00;;;;;;4923434;29;20392;-55
2023/09/26 01:57:59;;;;;;;;;;;20.60;1.00;;;;;;4918252;29;20306;-53
2023/09/26 02:00:26;;;;;;;;;;;20.60;1.00;;;;;;4918125;29;19931;-54
2023/09/26 02:02:53;;;;;;;;;;;20.60;1.00;;;;;;4918409;29;19927;-57
2023/09/26 02:05:21;;;;;;;;;;;20.60;1.00;;;;;;4918505;29;19927;-58
2023/09/26 02:07:48;;;;;;;;;;;20.50;1.00;;;;;;4918317;29;20013;-52
2023/09/26 02:10:15;;;;;;;;;;;20.50;1.00;;;;;;4935130;29;20423;-57
2023/09/26 02:12:43;;;;;;;;;;;20.50;1.00;;;;;;4918317;29;19926;-52
2023/09/26 02:15:12;;;;;;;;;;;20.50;1.00;;;;;;4935413;29;20407;-51
2023/09/26 02:17:39;;;;;;;;;;;20.50;1.00;;;;;;4918343;29;20022;-52
2023/09/26 02:20:12;;;;;;;;;;;20.50;1.00;;;;;;4929071;29;19930;-51
2023/09/26 02:22:44;;;;;;;;;;;20.50;1.00;;;;;;4954600;29;19926;-54
2023/09/26 02:25:12;;;;;;;;;;;20.50;1.00;;;;;;4954498;29;19927;-52
2023/09/26 02:27:39;;;;;;;;;;;20.50;1.00;;;;;;4954440;29;20021;-53
2023/09/26 02:30:08;;;;;;;;;;;20.50;1.00;;;;;;4954043;29;19953;-51
2023/09/26 02:32:35;;;;;;;;;;;20.50;1.00;;;;;;4954287;29;19973;-55
2023/09/26 02:35:03;;;;;;;;;;;20.50;1.00;;;;;;4954343;29;20336;-55
2023/09/26 02:37:30;;;;;;;;;;;20.50;1.00;;;;;;4954406;29;19926;-54
2023/09/26 02:39:57;;;;;;;;;;;20.50;1.00;;;;;;4954015;29;19927;-57
2023/09/26 02:42:23;;;;;;;;;;;20.50;1.00;;;;;;4937047;29;19934;-58
2023/09/26 02:44:50;;;;;;;;;;;20.50;1.00;;;;;;4952775;29;19927;-52
2023/09/26 02:47:18;;;;;;;;;;;20.50;1.00;;;;;;4936917;29;19933;-55
2023/09/26 02:49:45;;;;;;;;;;;20.50;1.00;;;;;;4952714;29;19926;-52
2023/09/26 02:52:11;;;;;;;;;;;20.50;1.00;;;;;;4952976;29;19958;-53
2023/09/26 02:54:38;;;;;;;;;;;20.50;1.00;;;;;;4952835;29;20376;-54
2023/09/26 02:57:05;;;;;;;;;;;20.50;1.00;;;;;;4954070;29;19927;-54
2023/09/26 02:59:35;;;;;;;;;;;20.50;1.00;;;;;;4952521;29;19930;-52
2023/09/26 03:02:02;;;;;;;;;;;20.40;1.00;;;;;;4953954;29;19973;-51
2023/09/26 03:04:29;;;;;;;;;;;20.50;1.00;;;;;;4936968;29;19926;-56
2023/09/26 03:06:56;;;;;;;;;;;20.40;1.00;;;;;;4936802;29;20439;-57
2023/09/26 03:09:23;;;;;;;;;;;20.50;1.00;;;;;;4936376;29;19965;-54
2023/09/26 03:11:50;;;;;;;;;;;20.50;1.00;;;;;;4953851;29;20427;-53
2023/09/26 03:14:18;;;;;;;;;;;20.50;1.00;;;;;;4936791;29;19926;-58
2023/09/26 03:16:44;;;;;;;;;;;20.50;1.00;;;;;;4953863;29;19931;-52
2023/09/26 03:19:12;;;;;;;;;;;20.50;1.00;;;;;;4952282;29;20455;-56
2023/09/26 03:21:38;;;;;;;;;;;20.50;1.00;;;;;;4936633;29;20476;-52
2023/09/26 03:24:05;;;;;;;;;;;20.40;1.00;;;;;;4954125;29;19930;-55
2023/09/26 03:26:32;;;;;;;;;;;20.40;1.00;;;;;;4936660;29;19926;-52
2023/09/26 03:28:59;;;;;;;;;;;20.40;1.00;;;;;;4950782;29;19976;-52
2023/09/26 03:31:26;;;;;;;;;;;20.40;1.00;;;;;;4919209;29;19930;-52
2023/09/26 03:33:53;;;;;;;;;;;20.40;1.00;;;;;;4920994;29;19934;-53
2023/09/26 03:36:20;;;;;;;;;;;20.40;1.00;;;;;;4921189;29;19927;-53
2023/09/26 03:38:48;;;;;;;;;;;20.40;1.00;;;;;;4921084;29;20308;-52
2023/09/26 03:41:15;;;;;;;;;;;20.40;1.00;;;;;;4932610;29;19927;-54
2023/09/26 03:43:42;;;;;;;;;;;20.40;1.00;;;;;;4957252;29;19933;-56
2023/09/26 03:46:09;;;;;;;;;;;20.40;1.00;;;;;;4957036;29;20017;-53
2023/09/26 03:48:36;;;;;;;;;;;20.40;1.00;;;;;;4956967;29;19954;-56
2023/09/26 03:51:10;;;;;;;;;;;20.40;1.00;;;;;;4957179;29;19958;-54
2023/09/26 03:53:37;;;;;;;;;;;20.40;1.00;;;;;;4957145;29;19952;-56
2023/09/26 03:56:04;;;;;;;;;;;20.40;1.00;;;;;;4957382;29;20320;-55
2023/09/26 03:58:31;;;;;;;;;;;20.40;1.00;;;;;;4956802;29;19934;-51
2023/09/26 04:01:11;;;;;;;;;;;20.40;1.00;;;;;;4956844;29;19930;-52
2023/09/26 04:03:39;;;;;;;;;;;20.40;1.00;;;;;;4956881;29;19927;-52
2023/09/26 04:06:07;;;;;;;;;;;20.40;1.00;;;;;;4956623;29;20416;-53
2023/09/26 04:08:34;;;;;;;;;;;20.40;1.00;;;;;;4950591;29;20338;-52
2023/09/26 04:11:01;;;;;;;;;;;20.40;1.00;;;;;;4945097;29;19934;-53
2023/09/26 04:13:27;;;;;;;;;;;20.40;1.00;;;;;;4950262;29;19927;-55
2023/09/26 04:15:54;;;;;;;;;;;20.40;1.00;;;;;;4952678;29;20455;-54
2023/09/26 04:18:25;;;;;;;;;;;20.40;1.00;;;;;;4940514;29;20308;-53
2023/09/26 04:20:52;;;;;;;;;;;20.40;1.00;;;;;;4940664;29;20304;-52
2023/09/26 04:23:19;;;;;;;;;;;20.40;1.00;;;;;;4937314;29;20426;-55
2023/09/26 04:25:45;;;;;;;;;;;20.40;1.00;;;;;;4942572;29;19934;-57
2023/09/26 04:28:12;;;;;;;;;;;20.40;1.00;;;;;;4937215;29;19926;-56
2023/09/26 04:30:39;;;;;;;;;;;20.30;1.00;;;;;;4936958;29;19933;-54
2023/09/26 04:33:07;;;;;;;;;;;20.30;1.00;;;;;;4937119;29;19933;-53
2023/09/26 04:35:35;;;;;;;;;;;20.30;1.00;;;;;;4937222;29;20399;-52
2023/09/26 04:38:02;;;;;;;;;;;20.30;1.00;;;;;;4936920;29;19962;-54
2023/09/26 04:40:29;;;;;;;;;;;20.30;1.00;;;;;;4936730;29;19927;-52
2023/09/26 04:43:00;;;;;;;;;;;20.30;1.00;;;;;;4918654;29;19973;-52
2023/09/26 04:45:31;;;;;;;;;;;20.30;1.00;;;;;;4936945;29;19930;-53
2023/09/26 04:48:01;;;;;;;;;;;20.30;1.00;;;;;;4936888;29;19930;-53
2023/09/26 04:50:28;;;;;;;;;;;20.30;1.00;;;;;;4936806;29;19931;-52
2023/09/26 04:52:56;;;;;;;;;;;20.30;1.00;;;;;;4936914;29;19926;-55
2023/09/26 04:55:23;;;;;;;;;;;20.30;1.00;;;;;;4939913;29;19926;-54
2023/09/26 04:57:50;;;;;;;;;;;20.30;1.00;;;;;;4940564;29;20423;-57
2023/09/26 05:00:17;;;;;;;;;;;20.30;1.00;;;;;;4936502;29;19934;-54
2023/09/26 05:02:44;;;;;;;;;;;20.30;1.00;;;;;;4936785;29;19933;-55
2023/09/26 05:05:12;;;;;;;;;;;20.30;1.00;;;;;;4936495;29;19961;-57
2023/09/26 05:07:43;;;;;;;;;;;20.30;1.00;;;;;;4936455;29;20309;-53
2023/09/26 05:10:13;;;;;;;;;;;20.30;1.00;;;;;;4936227;29;19933;-56
2023/09/26 05:12:42;;;;;;;;;;;20.30;1.00;;;;;;4936397;29;19927;-54
2023/09/26 05:15:12;;;;;;;;;;;20.30;1.00;;;;;;4936511;29;19926;-55
2023/09/26 05:17:46;;;;;;;;;;;20.30;1.00;;;;;;4936443;29;19931;-55
2023/09/26 05:20:13;;;;;;;;;;;20.20;1.00;;;;;;4935837;29;19934;-54
2023/09/26 05:22:41;;;;;;;;;;;20.20;1.00;;;;;;4936376;29;20333;-57
2023/09/26 05:25:08;;;;;;;;;;;20.20;1.00;;;;;;4935735;29;20373;-54
2023/09/26 05:27:36;;;;;;;;;;;20.30;1.00;;;;;;4934836;29;19939;-51
2023/09/26 05:30:03;;;;;;;;;;;20.20;1.00;;;;;;4934462;29;19927;-55
2023/09/26 05:32:29;;;;;;;;;;;20.20;1.00;;;;;;4935505;29;19981;-51
2023/09/26 05:34:56;;;;;;;;;;;20.20;1.00;;;;;;4935957;29;19927;-54
2023/09/26 05:37:23;;;;;;;;;;;20.20;1.00;;;;;;4939996;29;19927;-50
2023/09/26 05:39:50;;;;;;;;;;;20.20;1.00;;;;;;4921305;29;19982;-50
2023/09/26 05:42:17;;;;;;;;;;;20.20;1.00;;;;;;4937373;29;20176;-51
2023/09/26 05:44:44;;;;;;;;;;;20.20;1.00;;;;;;4939681;29;19937;-50
2023/09/26 05:47:10;;;;;;;;;;;20.20;1.00;;;;;;4943116;29;20295;-50
2023/09/26 05:49:37;;;;;;;;;;;20.20;1.00;;;;;;4935457;29;19951;-53
2023/09/26 05:52:04;;;;;;;;;;;20.20;1.00;;;;;;4935640;29;19926;-50
2023/09/26 05:54:31;;;;;;;;;;;20.20;1.00;;;;;;4935364;29;19927;-56
2023/09/26 05:56:58;;;;;;;;;;;20.20;1.00;;;;;;4935605;29;20036;-53
2023/09/26 05:59:24;;;;;;;;;;;20.20;1.00;;;;;;4935349;29;19933;-56
2023/09/26 06:01:51;;;;;;;;;;;20.20;1.00;;;;;;4935562;29;20022;-53
2023/09/26 06:04:18;;;;;;;;;;;20.20;1.00;;;;;;4935559;29;19930;-50
2023/09/26 06:06:45;;;;;;;;;;;20.20;1.00;;;;;;4935787;29;20017;-52
2023/09/26 06:09:12;;;;;;;;;;;20.20;1.00;;;;;;4935493;29;19938;-56
2023/09/26 06:11:39;;;;;;;;;;;20.20;1.00;;;;;;4935506;29;20017;-53
2023/09/26 06:14:06;;;;;;;;;;;20.20;1.00;;;;;;4935356;29;20012;-52
2023/09/26 06:16:33;;;;;;;;;;;20.20;1.00;;;;;;4935424;29;20016;-53
2023/09/26 06:18:59;;;;;;;;;;;20.20;1.00;;;;;;4939079;29;20394;-55
2023/09/26 06:21:26;;;;;;;;;;;20.20;1.00;;;;;;4941008;29;19933;-57
2023/09/26 06:23:53;;;;;;;;;;;20.20;1.00;;;;;;4936287;29;19926;-52
2023/09/26 06:26:20;;;;;;;;;;;20.20;1.00;;;;;;4935396;29;19992;-53
2023/09/26 06:28:47;;;;;;;;;;;20.20;1.00;;;;;;4934853;29;20245;-51
2023/09/26 06:31:14;;;;;;;;;;;20.20;1.00;;;;;;4935205;29;19927;-54
2023/09/26 06:33:41;;;;;;;;;;;20.20;1.00;;;;;;4935095;29;20418;-52
2023/09/26 06:36:12;;;;;;;;;;;20.20;1.00;;;;;;4935151;29;19926;-50
2023/09/26 06:38:38;;;;;;;;;;;20.20;1.00;;;;;;4934752;29;19931;-51
2023/09/26 06:41:06;;;;;;;;;;;20.20;1.00;;;;;;4935074;29;20350;-52
2023/09/26 06:43:33;;;;;;;;;;;20.20;1.00;;;;;;4935033;29;19931;-54
2023/09/26 06:46:04;;;;;;;;;;;20.20;1.00;;;;;;4934933;29;19926;-50
2023/09/26 06:48:31;;;;;;;;;;;20.20;1.00;;;;;;4934630;29;19931;-51
2023/09/26 06:50:57;;;;;;;;;;;20.20;1.00;;;;;;4935013;29;20435;-51
2023/09/26 06:53:24;;;;;;;;;;;20.20;1.00;;;;;;4935034;29;19958;-50
2023/09/26 06:55:58;;;;;;;;;;;20.20;1.00;;;;;;4934869;29;19927;-51
2023/09/26 06:58:27;;;;;;;;;;;20.20;1.00;;;;;;4946709;29;19926;-52
2023/09/26 07:00:54;;;;;;;;;;;20.20;1.00;;;;;;4954146;29;19981;-53
2023/09/26 07:03:21;;;;;;;;;;;20.20;1.00;;;;;;4953892;29;19949;-51
2023/09/26 07:05:48;;;;;;;;;;;20.20;1.00;;;;;;4955021;28;19933;-53
2023/09/26 07:08:15;;;;;;;;;;;20.20;1.00;;;;;;4957690;29;19926;-51
2023/09/26 07:10:42;;;;;;;;;;;20.20;1.00;;;;;;4957517;29;19990;-52
2023/09/26 07:13:09;;;;;;;;;;;20.20;1.00;;;;;;4957662;29;19934;-50
2023/09/26 07:16:03;;;;;;;;;;;20.10;1.00;;;;;;4957796;29;20395;-53
2023/09/26 07:18:30;;;;;;;;;;;20.20;1.00;;;;;;4957465;29;19957;-52
2023/09/26 07:21:05;;;;;;;;;;;20.20;1.00;;;;;;4957638;29;19930;-53
2023/09/26 07:23:32;;;;;;;;;;;20.20;1.00;;;;;;4957519;29;19973;-52
2023/09/26 07:26:05;;;;;;;;;;;20.20;1.00;;;;;;4957713;29;19969;-50
2023/09/26 07:28:31;;;;;;;;;;;20.20;1.00;;;;;;4957349;29;19950;-50
2023/09/26 07:30:58;;;;;;;;;;;20.20;1.00;;;;;;4957320;29;19930;-51
2023/09/26 07:33:26;;;;;;;;;;;20.20;1.00;;;;;;4957381;29;20407;-52
2023/09/26 07:35:53;;;;;;;;;;;20.20;1.00;;;;;;4957472;29;19927;-54
2023/09/26 07:38:19;;;;;;;;;;;20.20;1.00;;;;;;4957248;29;20273;-52
2023/09/26 07:40:46;;;;;;;;;;;20.20;1.00;;;;;;4957012;29;20021;-50
2023/09/26 07:43:13;;;;;;;;;;;20.20;1.00;;;;;;4957090;29;19934;-52
2023/09/26 07:45:40;;;;;;;;;;;20.20;1.00;;;;;;4957264;29;19931;-51
2023/09/26 07:48:07;;;;;;;;;;;20.20;1.00;;;;;;4957164;29;19927;-52
2023/09/26 07:50:33;;;;;;;;;;;20.20;1.00;;;;;;4956924;29;19934;-52
2023/09/26 07:53:01;;;;;;;;;;;20.20;1.00;;;;;;4957082;29;19927;-50
2023/09/26 07:55:28;;;;;;;;;;;20.20;1.00;;;;;;4957096;29;19933;-50
2023/09/26 07:57:55;;;;;;;;;;;20.20;1.00;;;;;;4956821;29;19960;-52
2023/09/26 08:00:22;;;;;;;;;;;20.20;1.00;;;;;;4956551;29;19981;-53
2023/09/26 08:02:49;;;;;;;;;;;20.20;1.00;;;;;;4956856;29;20403;-52
2023/09/26 08:05:15;;;;;;;;;;;20.20;1.00;;;;;;4956778;29;19927;-50
2023/09/26 08:07:43;;;;;;;;;;;20.20;1.00;;;;;;4947199;29;20255;-52
2023/09/26 08:10:10;;;;;;;;;;;20.20;1.00;;;;;;4937284;29;19926;-56
2023/09/26 08:12:37;;;;;;;;;;;20.20;1.00;;;;;;4937392;29;19981;-52
2023/09/26 08:15:04;;;;;;;;;;;20.20;1.00;;;;;;4937869;29;19938;-54
2023/09/26 08:17:30;;;;;;;;;;;20.20;1.00;;;;;;4937319;29;20300;-55
2023/09/26 08:19:58;;;;;;;;;;;20.20;1.00;;;;;;4937040;29;19982;-50
2023/09/26 08:22:24;;;;;;;;;;;20.20;1.00;;;;;;4937253;29;19933;-53
2023/09/26 08:24:51;;;;;;;;;;;20.20;1.00;;;;;;4937368;29;19974;-55
2023/09/26 08:27:18;;;;;;;;;;;20.20;1.00;;;;;;4937211;29;20017;-52
2023/09/26 08:29:45;;;;;;;;;;;20.20;1.00;;;;;;4937022;29;19974;-53
2023/09/26 08:32:12;;;;;;;;;;;20.20;1.00;;;;;;4937094;29;19927;-52
2023/09/26 08:34:38;;;;;;;;;;;20.20;1.00;;;;;;4937179;29;19931;-56
2023/09/26 08:37:05;;;;;;;;;;;20.20;1.00;;;;;;4936979;29;19927;-52
2023/09/26 08:39:32;;;;;;;;;;;20.20;1.00;;;;;;4919665;29;20021;-53
2023/09/26 08:41:59;;;;;;;;;;;20.20;1.00;;;;;;4936993;29;19930;-53
2023/09/26 08:44:26;;;;;;;;;;;20.20;1.00;;;;;;4936844;29;20480;-54
2023/09/26 08:46:53;;;;;;;;;;;20.20;1.00;;;;;;4937116;29;19973;-52
2023/09/26 08:49:20;;;;;;;;;;;20.20;1.00;;;;;;4936369;29;19974;-51
2023/09/26 08:51:46;;;;;;;;;;;20.20;1.00;;;;;;4936806;29;20407;-51
2023/09/26 08:54:13;;;;;;;;;;;20.20;1.00;;;;;;4937356;29;20316;-50
2023/09/26 08:56:40;;;;;;;;;;;20.20;1.00;;;;;;4936631;29;19933;-50
2023/09/26 08:59:10;;;;;;;;;;;20.20;1.00;;;;;;4936222;29;19933;-52
2023/09/26 09:01:37;;;;;;;;;;;20.20;1.00;;;;;;4919843;29;19926;-54
2023/09/26 09:04:04;;;;;;;;;;;20.30;1.00;;;;;;4936502;29;20026;-51
2023/09/26 09:06:31;;;;;;;;;;;20.30;1.00;;;;;;4936764;29;20211;-51
2023/09/26 09:09:08;;;;;;;;;;;20.30;1.00;;;;;;4936389;29;20340;-51
2023/09/26 09:11:35;;;;;;;;;;;20.30;1.00;;;;;;4936524;29;19927;-51
2023/09/26 09:14:02;;;;;;;;;;;20.30;1.00;;;;;;4936400;29;19933;-55
2023/09/26 09:16:29;;;;;;;;;;;20.30;1.00;;;;;;4947873;29;19930;-53
2023/09/26 09:18:58;;;;;;;;;;;20.30;1.00;;;;;;4955098;29;20196;-54
2023/09/26 09:21:27;;;;;;;;;;;20.30;1.00;;;;;;4955225;29;19926;-53
2023/09/26 09:23:55;;;;;;;;;;;20.30;1.00;;;;;;4955315;29;19993;-54
2023/09/26 09:26:22;;;;;;;;;;;20.30;1.00;;;;;;4955322;29;19933;-56
2023/09/26 09:28:51;;;;;;;;;;;20.30;1.00;;;;;;4954511;28;20348;-52
2023/09/26 09:31:18;;;;;;;;;;;20.30;1.00;;;;;;4955270;29;20412;-51
2023/09/26 09:33:46;;;;;;;;;;;20.30;1.00;;;;;;4955097;29;19926;-53
2023/09/26 09:36:14;;;;;;;;;;;20.30;1.00;;;;;;4955134;29;19927;-55
2023/09/26 09:38:40;;;;;;;;;;;20.30;1.00;;;;;;4949885;29;20411;-53
2023/09/26 09:41:08;;;;;;;;;;;20.40;1.00;;;;;;4936108;29;20344;-51
2023/09/26 09:43:35;;;;;;;;;;;20.40;1.00;;;;;;4935680;29;19927;-54
2023/09/26 09:46:04;;;;;;;;;;;20.40;1.00;;;;;;4935843;29;19934;-54
2023/09/26 09:48:35;;;;;;;;;;;20.40;1.00;;;;;;4946967;29;19926;-55
2023/09/26 09:51:04;;;;;;;;;;;20.40;1.00;;;;;;4955043;29;19927;-50
2023/09/26 09:53:33;;;;;;;;;;;20.40;1.00;;;;;;4955014;29;19930;-52
2023/09/26 09:56:03;;;;;;;;;;;20.40;1.00;;;;;;4954851;29;19927;-56
2023/09/26 09:58:31;;;;;;;;;;;20.40;1.00;;;;;;4954842;29;19970;-52
2023/09/26 10:00:59;;;;;;;;;;;20.40;1.00;;;;;;4954796;29;19981;-56
2023/09/26 10:03:26;;;;;;;;;;;20.40;1.00;;;;;;4954727;29;20331;-54
2023/09/26 10:05:53;;;;;;;;;;;20.50;1.00;;;;;;4954726;29;19926;-52
2023/09/26 10:08:21;;;;;;;;;;;20.50;1.00;;;;;;4954965;29;20022;-54
2023/09/26 10:10:48;;;;;;;;;;;20.50;1.00;;;;;;4954444;29;20422;-57
2023/09/26 10:13:16;;;;;;;;;;;20.50;1.00;;;;;;4953085;29;19933;-55
2023/09/26 10:16:03;;;;;;;;;;;20.40;1.00;;;;;;4935314;29;20389;-55
2023/09/26 10:18:30;;;;;;;;;;;20.50;1.00;;;;;;4935155;29;19970;-54
2023/09/26 10:20:56;;;;;;;;;;;20.50;1.00;;;;;;4935083;29;19934;-56
2023/09/26 10:23:23;;;;;;;;;;;20.50;1.00;;;;;;4935223;29;20361;-50
2023/09/26 10:25:50;;;;;;;;;;;20.50;1.00;;;;;;4935349;29;19927;-55
2023/09/26 10:28:16;;;;;;;;;;;20.50;1.00;;;;;;4935093;29;20048;-54
2023/09/26 10:30:44;;;;;;;;;;;20.60;1.00;;;;;;4934761;29;20357;-55
2023/09/26 10:33:12;;;;;;;;;;;20.60;1.00;;;;;;4935674;29;19927;-52
2023/09/26 10:36:04;;;;;;;;;;;20.60;1.00;;;;;;4954432;29;19930;-55
2023/09/26 10:38:31;;;;;;;;;;;20.60;1.00;;;;;;4953881;29;19933;-57
2023/09/26 10:40:58;;;;;;;;;;;20.60;1.00;;;;;;4954154;29;19926;-57
2023/09/26 10:43:27;;;;;;;;;;;20.60;1.00;;;;;;4954099;29;19930;-51
2023/09/26 10:46:14;;;;;;;;;;;20.60;1.00;;;;;;4954251;29;19946;-56
2023/09/26 10:48:41;;;;;;;;;;;20.60;1.00;;;;;;4953718;29;19933;-53
2023/09/26 10:51:08;;;;;;;;;;;20.70;1.00;;;;;;4954054;29;19935;-52
2023/09/26 10:53:35;;;;;;;;;;;20.60;1.00;;;;;;4954191;29;19926;-55
2023/09/26 10:56:02;;;;;;;;;;;20.70;1.00;;;;;;4954079;29;19966;-53
2023/09/26 10:58:32;;;;;;;;;;;20.70;1.00;;;;;;4954032;29;19966;-56
2023/09/26 11:00:59;;;;;;;;;;;20.70;1.00;;;;;;4954093;29;19927;-53
2023/09/26 11:03:28;;;;;;;;;;;20.70;1.00;;;;;;4953735;29;19958;-56
2023/09/26 11:05:55;;;;;;;;;;;20.70;1.00;;;;;;4954045;29;19950;-55
2023/09/26 11:08:23;;;;;;;;;;;20.70;1.00;;;;;;4953748;29;20403;-55
2023/09/26 11:11:10;;;;;;;;;;;20.80;1.00;;;;;;4954014;29;19931;-52
2023/09/26 11:13:38;;;;;;;;;;;20.70;1.00;;;;;;4953775;29;19927;-57
2023/09/26 11:16:06;;;;;;;;;;;20.80;1.00;;;;;;4953957;29;19927;-54
2023/09/26 11:18:32;;;;;;;;;;;20.70;1.00;;;;;;4941371;29;19927;-52
2023/09/26 11:21:00;;;;;;;;;;;20.80;1.00;;;;;;4934691;29;19938;-56
2023/09/26 11:23:47;;;;;;;;;;;20.80;1.00;;;;;;4934577;29;19927;-57
2023/09/26 11:26:14;;;;;;;;;;;20.80;1.00;;;;;;4934775;29;19989;-57
2023/09/26 11:28:40;;;;;;;;;;;20.80;1.00;;;;;;4934490;29;19966;-56
2023/09/26 11:31:07;;;;;;;;;;;20.80;1.00;;;;;;4934723;29;20396;-57
2023/09/26 11:33:34;;;;;;;;;;;20.80;1.00;;;;;;4934606;29;19927;-57
2023/09/26 11:36:01;;;;;;;;;;;20.80;1.00;;;;;;4934489;29;19927;-54
2023/09/26 11:38:29;;;;;;;;;;;20.80;1.00;;;;;;4934254;29;19931;-54
2023/09/26 11:40:57;;;;;;;;;;;20.80;1.00;;;;;;4934461;29;20014;-56
2023/09/26 11:43:23;;;;;;;;;;;20.90;1.00;;;;;;4934438;29;19926;-53
2023/09/26 11:45:59;;;;;;;;;;;20.80;1.00;;;;;;4934584;29;20415;-52
2023/09/26 11:48:26;;;;;;;;;;;20.80;1.00;;;;;;4942306;29;19927;-56
2023/09/26 11:50:53;;;;;;;;;;;20.90;1.00;;;;;;4934309;29;19974;-56
2023/09/26 11:53:20;;;;;;;;;;;20.80;1.00;;;;;;4937136;29;20380;-53
2023/09/26 11:55:51;;;;;;;;;;;20.80;1.00;;;;;;4955655;29;19926;-57
2023/09/26 11:58:18;;;;;;;;;;;20.90;1.00;;;;;;4969892;29;19926;-57
2023/09/26 12:00:45;;;;;;;;;;;20.90;1.00;;;;;;4969635;29;19926;-55
2023/09/26 12:03:12;;;;;;;;;;;20.90;1.00;;;;;;4960718;29;19961;-51
2023/09/26 12:05:38;;;;;;;;;;;20.90;1.00;;;;;;4937941;29;19973;-51
2023/09/26 12:08:05;;;;;;;;;;;20.90;1.00;;;;;;4937750;29;20029;-54
2023/09/26 12:10:33;;;;;;;;;;;20.90;1.00;;;;;;4937172;29;20373;-52
2023/09/26 12:12:59;;;;;;;;;;;20.90;1.00;;;;;;4937421;29;20300;-50
2023/09/26 12:15:29;;;;;;;;;;;20.90;1.00;;;;;;4937522;29;19926;-56
2023/09/26 12:17:56;;;;;;;;;;;20.90;1.00;;;;;;4937393;29;19927;-55
2023/09/26 12:20:28;;;;;;;;;;;20.90;1.00;;;;;;4937196;29;20293;-54
2023/09/26 12:22:56;;;;;;;;;;;20.90;1.00;;;;;;4937385;29;19927;-51
2023/09/26 12:25:23;;;;;;;;;;;20.90;1.00;;;;;;4937365;29;19959;-55
2023/09/26 12:27:52;;;;;;;;;;;21.00;1.00;;;;;;4937285;29;19931;-55
2023/09/26 12:30:19;;;;;;;;;;;21.00;1.00;;;;;;4936967;29;20239;-54
2023/09/26 12:32:47;;;;;;;;;;;21.00;1.00;;;;;;4937130;29;19933;-56
2023/09/26 12:35:14;;;;;;;;;;;21.00;1.00;;;;;;4937327;29;19931;-55
2023/09/26 12:37:41;;;;;;;;;;;21.00;1.00;;;;;;4937126;29;20002;-57
2023/09/26 12:40:14;;;;;;;;;;;20.90;1.00;;;;;;4936832;29;20455;-56
2023/09/26 12:42:42;;;;;;;;;;;21.00;1.00;;;;;;4937133;29;20026;-54
2023/09/26 12:45:10;;;;;;;;;;;21.00;1.00;;;;;;4936908;29;20030;-55
2023/09/26 12:47:36;;;;;;;;;;;21.00;1.00;;;;;;4936860;29;20278;-56
2023/09/26 12:50:07;;;;;;;;;;;21.00;1.00;;;;;;4936607;29;19930;-51
2023/09/26 12:52:35;;;;;;;;;;;21.00;1.00;;;;;;4936869;29;19927;-56
2023/09/26 12:55:03;;;;;;;;;;;21.00;1.00;;;;;;4936802;29;19927;-54
2023/09/26 12:57:30;;;;;;;;;;;21.00;1.00;;;;;;4936749;29;19931;-55
2023/09/26 12:59:57;;;;;;;;;;;21.00;1.00;;;;;;4936293;29;20337;-53
2023/09/26 13:02:24;;;;;;;;;;;21.00;1.00;;;;;;4936844;29;19934;-55
2023/09/26 13:04:54;;;;;;;;;;;21.00;1.00;;;;;;4935697;29;19958;-55
2023/09/26 13:07:22;;;;;;;;;;;21.00;1.00;;;;;;4936591;29;19927;-55
2023/09/26 13:09:50;;;;;;;;;;;21.00;1.00;;;;;;4936264;29;19927;-53
2023/09/26 13:12:17;;;;;;;;;;;21.00;1.00;;;;;;4936451;29;19977;-55
2023/09/26 13:14:44;;;;;;;;;;;21.10;1.00;;;;;;4936740;29;19926;-55
2023/09/26 13:17:12;;;;;;;;;;;21.10;1.00;;;;;;4936521;29;19931;-54
2023/09/26 13:19:40;;;;;;;;;;;21.10;1.00;;;;;;4947438;29;20407;-55
2023/09/26 13:22:11;;;;;;;;;;;21.10;1.00;;;;;;4955375;29;20385;-57
2023/09/26 13:24:38;;;;;;;;;;;21.10;1.00;;;;;;4955498;29;20270;-55
2023/09/26 13:27:05;;;;;;;;;;;21.10;1.00;;;;;;4955382;29;19949;-55
2023/09/26 13:29:33;;;;;;;;;;;21.10;1.00;;;;;;4955032;29;19927;-55
2023/09/26 13:32:00;;;;;;;;;;;21.10;1.00;;;;;;4955399;29;19927;-54
2023/09/26 13:34:27;;;;;;;;;;;21.10;1.00;;;;;;4937567;29;19926;-53
2023/09/26 13:36:54;;;;;;;;;;;21.10;1.00;;;;;;4936254;29;20397;-56
2023/09/26 13:39:22;;;;;;;;;;;21.10;1.00;;;;;;4935677;29;20296;-56
2023/09/26 13:41:49;;;;;;;;;;;21.20;1.00;;;;;;4936277;29;19926;-55
2023/09/26 13:44:15;;;;;;;;;;;21.20;1.00;;;;;;4935910;29;20033;-55
2023/09/26 13:46:42;;;;;;;;;;;21.10;1.00;;;;;;4935870;29;19927;-55
2023/09/26 13:49:09;;;;;;;;;;;21.20;1.00;;;;;;4935442;29;19926;-56
2023/09/26 13:51:36;;;;;;;;;;;21.20;1.00;;;;;;4936039;29;19927;-55
2023/09/26 13:54:03;;;;;;;;;;;21.20;1.00;;;;;;4939993;29;19997;-56
2023/09/26 13:56:30;;;;;;;;;;;21.20;1.00;;;;;;4948700;29;19930;-55
2023/09/26 13:58:57;;;;;;;;;;;21.20;1.00;;;;;;4935508;29;19990;-56
2023/09/26 14:01:23;;;;;;;;;;;21.20;1.00;;;;;;4945252;29;20329;-57
2023/09/26 14:03:50;;;;;;;;;;;21.20;1.00;;;;;;4945795;29;20329;-57
2023/09/26 14:06:17;;;;;;;;;;;21.20;1.00;;;;;;4935533;29;20424;-55
2023/09/26 14:08:44;;;;;;;;;;;21.20;1.00;;;;;;4935094;29;19927;-57
2023/09/26 14:11:11;;;;;;;;;;;21.20;1.00;;;;;;4935604;29;19970;-57
2023/09/26 14:13:39;;;;;;;;;;;21.20;1.00;;;;;;4935220;29;19993;-53
2023/09/26 14:16:06;;;;;;;;;;;21.30;1.00;;;;;;4935310;29;20277;-55
2023/09/26 14:18:35;;;;;;;;;;;21.30;1.00;;;;;;4934924;29;20448;-54
2023/09/26 14:21:03;;;;;;;;;;;21.30;1.00;;;;;;4935495;29;19970;-58
2023/09/26 14:23:30;;;;;;;;;;;21.30;1.00;;;;;;4935278;29;19927;-57
2023/09/26 14:25:58;;;;;;;;;;;21.30;1.00;;;;;;4935366;29;19927;-54
2023/09/26 14:28:25;;;;;;;;;;;21.30;1.00;;;;;;4941565;29;19962;-59
2023/09/26 14:30:53;;;;;;;;;;;21.30;1.00;;;;;;4934955;29;20488;-57
2023/09/26 14:33:20;;;;;;;;;;;21.30;1.00;;;;;;4935284;29;20416;-58